Etusivu
METAR-TAF:

METAR-TAF

Lentoasemat :

Paris, Tennessee, Yhdysvallat

Leveyspiiri: 36-20-18N, Pituuspiiri: 088-22-58W, korkeus merenpinnasta: 177 m

Tämänhetkinen sää

Tämä raportti tehtiin 15 minuuttia sitten, kello 17.15 UTC
Tuuli 8 kn etelästä/lounaasta
Lämpötila 7°C
Kosteus 33%
Ilmanpaine 1032 hPa
Näkyvyys: 16.1 km
selkeää

METAR: KPHT 221715Z AUTO 20008KT 10SM CLR 07/M08 A3047 RMK A01

Aika: 11:30 (17:30 UTC)


TAF: puuttuu

Säähavainnot ja -ennusteet yli 4000 lentoasemalta (METAR- ja TAF-raportit).

Käytössä olevat sääasemat on merkitty karttaan keltaisilla ja punaisilla pisteillä.

Aseta hiiri pisteen päälle nähdäksesi sääaseman nimen.

Klikkaa sitten nähdäksesi säähavainnot ja -ennusteet.

Kartan vaihtaminen: klikkaa mustalla rastilla varustettuja vihreitä pisteitä, niin voit zoomata sisään; viivalla varustettua vihreää pistettä, niin voit zoomata ulos tai vihreitä nuolia, niin pääset viereisille kartoille.


METAR-TAF: